sensor_id;sensor_type;location;lat;lon;timestamp;P1;durP1;ratioP1;P2;durP2;ratioP2
21480;SDS011;10902;48.158;8.634;2023-03-13T00:01:34;6.32;;;1.65;;
21480;SDS011;10902;48.158;8.634;2023-03-13T00:04:08;7.55;;;1.73;;
21480;SDS011;10902;48.158;8.634;2023-03-13T00:06:35;7.45;;;1.77;;
21480;SDS011;10902;48.158;8.634;2023-03-13T00:09:02;8.63;;;1.50;;
21480;SDS011;10902;48.158;8.634;2023-03-13T00:11:29;6.38;;;1.50;;
21480;SDS011;10902;48.158;8.634;2023-03-13T00:13:56;7.38;;;1.55;;
21480;SDS011;10902;48.158;8.634;2023-03-13T00:16:22;9.38;;;1.98;;
21480;SDS011;10902;48.158;8.634;2023-03-13T00:18:49;8.55;;;1.95;;
21480;SDS011;10902;48.158;8.634;2023-03-13T00:21:17;8.93;;;1.60;;
21480;SDS011;10902;48.158;8.634;2023-03-13T00:23:44;9.00;;;2.03;;
21480;SDS011;10902;48.158;8.634;2023-03-13T00:26:11;8.20;;;1.83;;
21480;SDS011;10902;48.158;8.634;2023-03-13T00:28:38;6.45;;;1.77;;
21480;SDS011;10902;48.158;8.634;2023-03-13T00:31:06;10.13;;;1.92;;
21480;SDS011;10902;48.158;8.634;2023-03-13T00:33:34;5.75;;;1.35;;
21480;SDS011;10902;48.158;8.634;2023-03-13T00:36:02;6.90;;;1.70;;
21480;SDS011;10902;48.158;8.634;2023-03-13T00:38:30;7.57;;;1.60;;
21480;SDS011;10902;48.158;8.634;2023-03-13T00:43:26;6.60;;;1.38;;
21480;SDS011;10902;48.158;8.634;2023-03-13T00:45:52;5.82;;;1.20;;
21480;SDS011;10902;48.158;8.634;2023-03-13T00:48:17;6.95;;;1.80;;
21480;SDS011;10902;48.158;8.634;2023-03-13T00:50:43;4.82;;;1.27;;
21480;SDS011;10902;48.158;8.634;2023-03-13T00:53:08;4.95;;;1.30;;
21480;SDS011;10902;48.158;8.634;2023-03-13T00:55:34;6.20;;;1.38;;
21480;SDS011;10902;48.158;8.634;2023-03-13T00:57:59;5.70;;;1.20;;
21480;SDS011;10902;48.158;8.634;2023-03-13T01:00:25;6.80;;;1.38;;
21480;SDS011;10902;48.158;8.634;2023-03-13T01:02:50;4.57;;;1.10;;
21480;SDS011;10902;48.158;8.634;2023-03-13T01:05:16;6.53;;;1.25;;
21480;SDS011;10902;48.158;8.634;2023-03-13T01:07:42;5.57;;;1.45;;
21480;SDS011;10902;48.158;8.634;2023-03-13T01:10:07;4.97;;;1.23;;
21480;SDS011;10902;48.158;8.634;2023-03-13T01:12:34;5.03;;;1.33;;
21480;SDS011;10902;48.158;8.634;2023-03-13T01:14:59;4.28;;;1.13;;
21480;SDS011;10902;48.158;8.634;2023-03-13T01:17:25;3.58;;;1.13;;
21480;SDS011;10902;48.158;8.634;2023-03-13T01:19:53;7.07;;;1.30;;
21480;SDS011;10902;48.158;8.634;2023-03-13T01:22:20;7.32;;;1.33;;
21480;SDS011;10902;48.158;8.634;2023-03-13T01:24:45;6.28;;;1.50;;
21480;SDS011;10902;48.158;8.634;2023-03-13T01:27:14;6.50;;;1.20;;
21480;SDS011;10902;48.158;8.634;2023-03-13T01:29:39;4.82;;;1.10;;
21480;SDS011;10902;48.158;8.634;2023-03-13T01:32:05;4.18;;;0.82;;
21480;SDS011;10902;48.158;8.634;2023-03-13T01:34:31;5.15;;;0.98;;
21480;SDS011;10902;48.158;8.634;2023-03-13T01:36:56;4.45;;;1.20;;
21480;SDS011;10902;48.158;8.634;2023-03-13T01:39:22;5.50;;;1.10;;
21480;SDS011;10902;48.158;8.634;2023-03-13T01:41:48;6.13;;;1.27;;
21480;SDS011;10902;48.158;8.634;2023-03-13T01:44:18;4.82;;;1.33;;
21480;SDS011;10902;48.158;8.634;2023-03-13T01:46:49;5.88;;;1.25;;
21480;SDS011;10902;48.158;8.634;2023-03-13T01:51:53;6.43;;;1.60;;
21480;SDS011;10902;48.158;8.634;2023-03-13T01:54:25;5.03;;;1.10;;
21480;SDS011;10902;48.158;8.634;2023-03-13T01:56:54;6.13;;;1.20;;
21480;SDS011;10902;48.158;8.634;2023-03-13T01:59:25;6.25;;;1.38;;
21480;SDS011;10902;48.158;8.634;2023-03-13T02:01:56;4.47;;;1.10;;
21480;SDS011;10902;48.158;8.634;2023-03-13T02:04:24;5.55;;;1.15;;
21480;SDS011;10902;48.158;8.634;2023-03-13T02:06:54;4.03;;;1.10;;
21480;SDS011;10902;48.158;8.634;2023-03-13T02:09:24;5.78;;;1.33;;
21480;SDS011;10902;48.158;8.634;2023-03-13T02:11:58;3.90;;;1.20;;
21480;SDS011;10902;48.158;8.634;2023-03-13T02:14:28;4.70;;;1.27;;
21480;SDS011;10902;48.158;8.634;2023-03-13T02:16:58;5.30;;;1.13;;
21480;SDS011;10902;48.158;8.634;2023-03-13T02:19:37;5.65;;;1.75;;
21480;SDS011;10902;48.158;8.634;2023-03-13T02:25:14;4.72;;;1.33;;
21480;SDS011;10902;48.158;8.634;2023-03-13T02:28:53;7.60;;;1.33;;
21480;SDS011;10902;48.158;8.634;2023-03-13T02:30:52;5.32;;;1.10;;
21480;SDS011;10902;48.158;8.634;2023-03-13T02:33:19;4.50;;;1.27;;
21480;SDS011;10902;48.158;8.634;2023-03-13T02:35:46;3.60;;;0.88;;
21480;SDS011;10902;48.158;8.634;2023-03-13T02:38:15;4.38;;;1.38;;
21480;SDS011;10902;48.158;8.634;2023-03-13T02:40:44;4.38;;;1.13;;
21480;SDS011;10902;48.158;8.634;2023-03-13T02:43:17;5.78;;;1.40;;
21480;SDS011;10902;48.158;8.634;2023-03-13T02:48:37;5.68;;;1.42;;
21480;SDS011;10902;48.158;8.634;2023-03-13T02:51:09;6.28;;;1.50;;
21480;SDS011;10902;48.158;8.634;2023-03-13T02:53:56;5.95;;;1.40;;
21480;SDS011;10902;48.158;8.634;2023-03-13T02:56:25;5.88;;;1.83;;
21480;SDS011;10902;48.158;8.634;2023-03-13T02:58:51;6.55;;;1.67;;
21480;SDS011;10902;48.158;8.634;2023-03-13T03:01:17;6.97;;;1.30;;
21480;SDS011;10902;48.158;8.634;2023-03-13T03:03:43;6.50;;;1.40;;
21480;SDS011;10902;48.158;8.634;2023-03-13T03:06:08;5.53;;;1.45;;
21480;SDS011;10902;48.158;8.634;2023-03-13T03:08:34;5.43;;;1.40;;
21480;SDS011;10902;48.158;8.634;2023-03-13T03:11:00;5.07;;;1.33;;
21480;SDS011;10902;48.158;8.634;2023-03-13T03:13:26;6.43;;;1.60;;
21480;SDS011;10902;48.158;8.634;2023-03-13T03:15:52;5.10;;;1.40;;
21480;SDS011;10902;48.158;8.634;2023-03-13T03:18:17;5.03;;;1.60;;
21480;SDS011;10902;48.158;8.634;2023-03-13T03:20:43;6.72;;;1.83;;
21480;SDS011;10902;48.158;8.634;2023-03-13T03:23:09;5.68;;;1.48;;
21480;SDS011;10902;48.158;8.634;2023-03-13T03:25:34;6.35;;;1.42;;
21480;SDS011;10902;48.158;8.634;2023-03-13T03:28:00;8.80;;;1.50;;
21480;SDS011;10902;48.158;8.634;2023-03-13T03:30:25;5.85;;;1.75;;
21480;SDS011;10902;48.158;8.634;2023-03-13T03:32:51;5.95;;;1.55;;
21480;SDS011;10902;48.158;8.634;2023-03-13T03:35:16;8.02;;;1.95;;
21480;SDS011;10902;48.158;8.634;2023-03-13T03:37:42;4.63;;;1.48;;
21480;SDS011;10902;48.158;8.634;2023-03-13T03:40:08;6.07;;;1.30;;
21480;SDS011;10902;48.158;8.634;2023-03-13T03:42:34;5.53;;;1.60;;
21480;SDS011;10902;48.158;8.634;2023-03-13T03:45:00;7.18;;;1.67;;
21480;SDS011;10902;48.158;8.634;2023-03-13T03:47:26;4.72;;;1.33;;
21480;SDS011;10902;48.158;8.634;2023-03-13T03:49:52;4.35;;;1.23;;
21480;SDS011;10902;48.158;8.634;2023-03-13T03:52:18;4.78;;;1.25;;
21480;SDS011;10902;48.158;8.634;2023-03-13T03:54:43;7.07;;;2.17;;
21480;SDS011;10902;48.158;8.634;2023-03-13T03:57:09;5.40;;;1.60;;
21480;SDS011;10902;48.158;8.634;2023-03-13T03:59:34;6.82;;;1.77;;
21480;SDS011;10902;48.158;8.634;2023-03-13T04:02:00;4.57;;;1.50;;
21480;SDS011;10902;48.158;8.634;2023-03-13T04:04:26;6.28;;;1.25;;
21480;SDS011;10902;48.158;8.634;2023-03-13T04:06:51;7.03;;;1.67;;
21480;SDS011;10902;48.158;8.634;2023-03-13T04:09:17;4.78;;;1.30;;
21480;SDS011;10902;48.158;8.634;2023-03-13T04:11:43;6.78;;;1.50;;
21480;SDS011;10902;48.158;8.634;2023-03-13T04:14:08;7.75;;;1.50;;
21480;SDS011;10902;48.158;8.634;2023-03-13T04:16:34;5.88;;;1.40;;
21480;SDS011;10902;48.158;8.634;2023-03-13T04:19:00;4.38;;;1.10;;
21480;SDS011;10902;48.158;8.634;2023-03-13T04:21:25;5.03;;;1.42;;
21480;SDS011;10902;48.158;8.634;2023-03-13T04:23:51;5.32;;;1.23;;
21480;SDS011;10902;48.158;8.634;2023-03-13T04:26:17;3.00;;;0.82;;
21480;SDS011;10902;48.158;8.634;2023-03-13T04:28:42;4.75;;;1.20;;
21480;SDS011;10902;48.158;8.634;2023-03-13T04:31:08;5.15;;;1.35;;
21480;SDS011;10902;48.158;8.634;2023-03-13T04:33:33;4.57;;;1.10;;
21480;SDS011;10902;48.158;8.634;2023-03-13T04:36:00;7.03;;;1.50;;
21480;SDS011;10902;48.158;8.634;2023-03-13T04:38:26;5.22;;;1.23;;
21480;SDS011;10902;48.158;8.634;2023-03-13T04:40:52;4.65;;;1.40;;
21480;SDS011;10902;48.158;8.634;2023-03-13T04:43:17;4.60;;;1.35;;
21480;SDS011;10902;48.158;8.634;2023-03-13T04:45:43;5.85;;;1.25;;
21480;SDS011;10902;48.158;8.634;2023-03-13T04:48:08;5.03;;;1.15;;
21480;SDS011;10902;48.158;8.634;2023-03-13T04:50:34;4.50;;;1.10;;
21480;SDS011;10902;48.158;8.634;2023-03-13T04:52:59;3.20;;;1.20;;
21480;SDS011;10902;48.158;8.634;2023-03-13T04:55:25;3.83;;;1.17;;
21480;SDS011;10902;48.158;8.634;2023-03-13T04:57:50;4.53;;;1.20;;
21480;SDS011;10902;48.158;8.634;2023-03-13T05:00:16;4.45;;;1.23;;
21480;SDS011;10902;48.158;8.634;2023-03-13T05:02:42;4.30;;;1.02;;
21480;SDS011;10902;48.158;8.634;2023-03-13T05:05:07;6.15;;;1.48;;
21480;SDS011;10902;48.158;8.634;2023-03-13T05:07:33;5.65;;;1.30;;
21480;SDS011;10902;48.158;8.634;2023-03-13T05:09:59;4.30;;;1.13;;
21480;SDS011;10902;48.158;8.634;2023-03-13T05:12:24;4.22;;;1.38;;
21480;SDS011;10902;48.158;8.634;2023-03-13T05:14:50;3.58;;;1.40;;
21480;SDS011;10902;48.158;8.634;2023-03-13T05:17:16;4.20;;;1.13;;
21480;SDS011;10902;48.158;8.634;2023-03-13T05:19:42;5.65;;;1.50;;
21480;SDS011;10902;48.158;8.634;2023-03-13T05:22:07;4.32;;;1.17;;
21480;SDS011;10902;48.158;8.634;2023-03-13T05:24:33;4.90;;;1.17;;
21480;SDS011;10902;48.158;8.634;2023-03-13T05:26:58;4.78;;;1.60;;
21480;SDS011;10902;48.158;8.634;2023-03-13T05:29:24;5.68;;;1.30;;
21480;SDS011;10902;48.158;8.634;2023-03-13T05:31:50;4.50;;;1.20;;
21480;SDS011;10902;48.158;8.634;2023-03-13T05:34:16;3.92;;;1.17;;
21480;SDS011;10902;48.158;8.634;2023-03-13T05:36:42;5.25;;;1.70;;
21480;SDS011;10902;48.158;8.634;2023-03-13T05:39:07;3.53;;;1.33;;
21480;SDS011;10902;48.158;8.634;2023-03-13T05:41:33;5.45;;;1.30;;
21480;SDS011;10902;48.158;8.634;2023-03-13T05:43:58;5.03;;;1.13;;
21480;SDS011;10902;48.158;8.634;2023-03-13T05:46:24;2.75;;;1.10;;
21480;SDS011;10902;48.158;8.634;2023-03-13T05:48:50;4.40;;;1.40;;
21480;SDS011;10902;48.158;8.634;2023-03-13T05:51:16;4.72;;;1.80;;
21480;SDS011;10902;48.158;8.634;2023-03-13T05:53:42;4.22;;;1.55;;
21480;SDS011;10902;48.158;8.634;2023-03-13T05:56:08;5.32;;;1.73;;
21480;SDS011;10902;48.158;8.634;2023-03-13T05:58:33;7.63;;;1.58;;
21480;SDS011;10902;48.158;8.634;2023-03-13T06:00:59;4.88;;;1.55;;
21480;SDS011;10902;48.158;8.634;2023-03-13T06:03:33;5.13;;;1.65;;
21480;SDS011;10902;48.158;8.634;2023-03-13T06:05:59;6.47;;;1.70;;
21480;SDS011;10902;48.158;8.634;2023-03-13T06:08:24;3.85;;;1.20;;
21480;SDS011;10902;48.158;8.634;2023-03-13T06:10:50;4.68;;;1.40;;
21480;SDS011;10902;48.158;8.634;2023-03-13T06:13:15;4.38;;;1.20;;
21480;SDS011;10902;48.158;8.634;2023-03-13T06:15:41;4.95;;;1.38;;
21480;SDS011;10902;48.158;8.634;2023-03-13T06:18:06;2.75;;;1.15;;
21480;SDS011;10902;48.158;8.634;2023-03-13T06:20:32;6.00;;;3.15;;
21480;SDS011;10902;48.158;8.634;2023-03-13T06:22:58;6.38;;;1.95;;
21480;SDS011;10902;48.158;8.634;2023-03-13T06:25:23;5.95;;;1.63;;
21480;SDS011;10902;48.158;8.634;2023-03-13T06:27:49;3.90;;;1.17;;
21480;SDS011;10902;48.158;8.634;2023-03-13T06:30:15;3.13;;;0.95;;
21480;SDS011;10902;48.158;8.634;2023-03-13T06:32:41;4.78;;;1.08;;
21480;SDS011;10902;48.158;8.634;2023-03-13T06:35:07;3.88;;;1.00;;
21480;SDS011;10902;48.158;8.634;2023-03-13T06:37:32;4.18;;;0.98;;
21480;SDS011;10902;48.158;8.634;2023-03-13T06:39:58;4.70;;;1.40;;
21480;SDS011;10902;48.158;8.634;2023-03-13T06:42:24;4.60;;;1.08;;
21480;SDS011;10902;48.158;8.634;2023-03-13T06:44:49;4.10;;;1.10;;
21480;SDS011;10902;48.158;8.634;2023-03-13T06:47:15;2.63;;;0.82;;
21480;SDS011;10902;48.158;8.634;2023-03-13T06:49:41;3.65;;;1.00;;
21480;SDS011;10902;48.158;8.634;2023-03-13T06:52:06;3.40;;;1.02;;
21480;SDS011;10902;48.158;8.634;2023-03-13T06:54:32;2.58;;;0.88;;
21480;SDS011;10902;48.158;8.634;2023-03-13T06:56:58;6.90;;;1.17;;
21480;SDS011;10902;48.158;8.634;2023-03-13T06:59:23;2.92;;;0.90;;
21480;SDS011;10902;48.158;8.634;2023-03-13T07:01:49;3.13;;;1.10;;
21480;SDS011;10902;48.158;8.634;2023-03-13T07:04:14;3.15;;;1.20;;
21480;SDS011;10902;48.158;8.634;2023-03-13T07:06:40;3.50;;;1.00;;
21480;SDS011;10902;48.158;8.634;2023-03-13T07:09:06;2.90;;;1.10;;
21480;SDS011;10902;48.158;8.634;2023-03-13T07:11:32;3.08;;;0.80;;
21480;SDS011;10902;48.158;8.634;2023-03-13T07:13:57;3.05;;;0.90;;
21480;SDS011;10902;48.158;8.634;2023-03-13T07:16:26;4.97;;;1.05;;
21480;SDS011;10902;48.158;8.634;2023-03-13T07:18:52;4.32;;;1.30;;
21480;SDS011;10902;48.158;8.634;2023-03-13T07:21:17;3.42;;;0.90;;
21480;SDS011;10902;48.158;8.634;2023-03-13T07:23:43;4.28;;;1.30;;
21480;SDS011;10902;48.158;8.634;2023-03-13T07:26:12;5.20;;;1.50;;
21480;SDS011;10902;48.158;8.634;2023-03-13T07:28:39;5.60;;;1.50;;
21480;SDS011;10902;48.158;8.634;2023-03-13T07:31:13;3.70;;;0.90;;
21480;SDS011;10902;48.158;8.634;2023-03-13T07:33:39;3.50;;;1.20;;
21480;SDS011;10902;48.158;8.634;2023-03-13T07:36:05;4.35;;;1.15;;
21480;SDS011;10902;48.158;8.634;2023-03-13T07:38:31;3.42;;;1.05;;
21480;SDS011;10902;48.158;8.634;2023-03-13T07:40:57;2.65;;;0.88;;
21480;SDS011;10902;48.158;8.634;2023-03-13T07:43:24;2.83;;;1.02;;
21480;SDS011;10902;48.158;8.634;2023-03-13T07:45:51;4.03;;;1.35;;
21480;SDS011;10902;48.158;8.634;2023-03-13T07:48:21;2.05;;;0.60;;
21480;SDS011;10902;48.158;8.634;2023-03-13T07:50:48;3.75;;;1.50;;
21480;SDS011;10902;48.158;8.634;2023-03-13T07:53:14;2.42;;;0.70;;
21480;SDS011;10902;48.158;8.634;2023-03-13T07:56:06;3.65;;;0.80;;
21480;SDS011;10902;48.158;8.634;2023-03-13T07:58:32;4.00;;;1.00;;
21480;SDS011;10902;48.158;8.634;2023-03-13T08:01:00;4.35;;;0.98;;
21480;SDS011;10902;48.158;8.634;2023-03-13T08:03:31;3.08;;;0.63;;
21480;SDS011;10902;48.158;8.634;2023-03-13T08:06:39;2.92;;;0.82;;
21480;SDS011;10902;48.158;8.634;2023-03-13T08:08:47;3.72;;;1.02;;
21480;SDS011;10902;48.158;8.634;2023-03-13T08:11:17;2.78;;;0.77;;
21480;SDS011;10902;48.158;8.634;2023-03-13T08:13:44;2.50;;;0.90;;
21480;SDS011;10902;48.158;8.634;2023-03-13T08:16:14;3.75;;;1.10;;
21480;SDS011;10902;48.158;8.634;2023-03-13T08:18:45;2.72;;;0.77;;
21480;SDS011;10902;48.158;8.634;2023-03-13T08:21:13;4.10;;;1.20;;
21480;SDS011;10902;48.158;8.634;2023-03-13T08:23:44;4.03;;;1.00;;
21480;SDS011;10902;48.158;8.634;2023-03-13T08:26:11;5.47;;;1.00;;
21480;SDS011;10902;48.158;8.634;2023-03-13T08:28:39;3.35;;;1.10;;
21480;SDS011;10902;48.158;8.634;2023-03-13T08:31:18;4.60;;;1.05;;
21480;SDS011;10902;48.158;8.634;2023-03-13T08:33:45;3.58;;;1.17;;
21480;SDS011;10902;48.158;8.634;2023-03-13T08:36:22;4.30;;;0.90;;
21480;SDS011;10902;48.158;8.634;2023-03-13T08:38:50;3.05;;;0.90;;
21480;SDS011;10902;48.158;8.634;2023-03-13T08:41:17;3.83;;;0.93;;
21480;SDS011;10902;48.158;8.634;2023-03-13T08:43:47;3.08;;;0.75;;
21480;SDS011;10902;48.158;8.634;2023-03-13T08:46:15;3.80;;;1.13;;
21480;SDS011;10902;48.158;8.634;2023-03-13T08:48:41;3.03;;;1.00;;
21480;SDS011;10902;48.158;8.634;2023-03-13T08:51:08;3.33;;;0.90;;
21480;SDS011;10902;48.158;8.634;2023-03-13T08:53:36;4.25;;;1.38;;
21480;SDS011;10902;48.158;8.634;2023-03-13T08:56:02;5.30;;;1.60;;
21480;SDS011;10902;48.158;8.634;2023-03-13T08:58:29;4.32;;;1.80;;
21480;SDS011;10902;48.158;8.634;2023-03-13T09:00:59;4.30;;;1.67;;
21480;SDS011;10902;48.158;8.634;2023-03-13T09:03:35;4.38;;;1.13;;
21480;SDS011;10902;48.158;8.634;2023-03-13T09:06:02;3.78;;;1.10;;
21480;SDS011;10902;48.158;8.634;2023-03-13T09:08:28;4.20;;;1.60;;
21480;SDS011;10902;48.158;8.634;2023-03-13T09:10:55;2.78;;;0.98;;
21480;SDS011;10902;48.158;8.634;2023-03-13T09:13:26;3.22;;;0.80;;
21480;SDS011;10902;48.158;8.634;2023-03-13T09:15:53;4.95;;;0.80;;
21480;SDS011;10902;48.158;8.634;2023-03-13T09:18:19;3.35;;;0.93;;
21480;SDS011;10902;48.158;8.634;2023-03-13T09:20:45;4.13;;;1.05;;
21480;SDS011;10902;48.158;8.634;2023-03-13T09:23:10;3.60;;;0.80;;
21480;SDS011;10902;48.158;8.634;2023-03-13T09:25:37;3.45;;;1.00;;
21480;SDS011;10902;48.158;8.634;2023-03-13T09:28:03;3.33;;;1.00;;
21480;SDS011;10902;48.158;8.634;2023-03-13T09:30:28;4.32;;;1.10;;
21480;SDS011;10902;48.158;8.634;2023-03-13T09:32:54;4.00;;;1.00;;
21480;SDS011;10902;48.158;8.634;2023-03-13T09:35:20;3.45;;;0.98;;
21480;SDS011;10902;48.158;8.634;2023-03-13T09:37:45;2.88;;;1.00;;
21480;SDS011;10902;48.158;8.634;2023-03-13T09:40:14;3.75;;;0.85;;
21480;SDS011;10902;48.158;8.634;2023-03-13T09:42:52;2.80;;;0.88;;
21480;SDS011;10902;48.158;8.634;2023-03-13T09:45:27;3.58;;;1.10;;
21480;SDS011;10902;48.158;8.634;2023-03-13T09:48:07;3.33;;;0.90;;
21480;SDS011;10902;48.158;8.634;2023-03-13T09:50:43;3.40;;;1.10;;
21480;SDS011;10902;48.158;8.634;2023-03-13T09:53:28;3.42;;;0.95;;
21480;SDS011;10902;48.158;8.634;2023-03-13T09:55:58;3.75;;;1.00;;
21480;SDS011;10902;48.158;8.634;2023-03-13T09:58:37;3.15;;;0.90;;
21480;SDS011;10902;48.158;8.634;2023-03-13T10:01:08;3.60;;;0.95;;
21480;SDS011;10902;48.158;8.634;2023-03-13T10:03:38;4.05;;;1.15;;
21480;SDS011;10902;48.158;8.634;2023-03-13T10:06:15;3.45;;;0.98;;
21480;SDS011;10902;48.158;8.634;2023-03-13T10:08:43;4.15;;;0.93;;
21480;SDS011;10902;48.158;8.634;2023-03-13T10:13:50;3.47;;;1.10;;
21480;SDS011;10902;48.158;8.634;2023-03-13T10:16:34;3.13;;;1.05;;
21480;SDS011;10902;48.158;8.634;2023-03-13T10:19:15;2.70;;;0.95;;
21480;SDS011;10902;48.158;8.634;2023-03-13T10:21:44;4.25;;;1.17;;
21480;SDS011;10902;48.158;8.634;2023-03-13T10:26:55;3.58;;;1.10;;
21480;SDS011;10902;48.158;8.634;2023-03-13T10:31:55;4.07;;;0.98;;
21480;SDS011;10902;48.158;8.634;2023-03-13T10:34:23;4.28;;;1.13;;
21480;SDS011;10902;48.158;8.634;2023-03-13T10:36:53;2.90;;;1.02;;
21480;SDS011;10902;48.158;8.634;2023-03-13T10:39:24;2.80;;;0.80;;
21480;SDS011;10902;48.158;8.634;2023-03-13T10:41:55;3.45;;;0.90;;
21480;SDS011;10902;48.158;8.634;2023-03-13T10:44:36;3.75;;;1.17;;
21480;SDS011;10902;48.158;8.634;2023-03-13T10:47:02;4.00;;;1.20;;
21480;SDS011;10902;48.158;8.634;2023-03-13T10:49:29;3.95;;;1.10;;
21480;SDS011;10902;48.158;8.634;2023-03-13T10:52:03;3.85;;;1.27;;
21480;SDS011;10902;48.158;8.634;2023-03-13T10:54:31;6.68;;;1.17;;
21480;SDS011;10902;48.158;8.634;2023-03-13T10:59:42;3.05;;;0.85;;
21480;SDS011;10902;48.158;8.634;2023-03-13T11:02:32;4.13;;;1.13;;
21480;SDS011;10902;48.158;8.634;2023-03-13T11:05:28;4.55;;;0.98;;
21480;SDS011;10902;48.158;8.634;2023-03-13T11:07:56;5.63;;;1.25;;
21480;SDS011;10902;48.158;8.634;2023-03-13T11:10:23;2.90;;;0.90;;
21480;SDS011;10902;48.158;8.634;2023-03-13T11:12:54;3.97;;;1.00;;
21480;SDS011;10902;48.158;8.634;2023-03-13T11:17:58;3.47;;;0.98;;
21480;SDS011;10902;48.158;8.634;2023-03-13T11:20:47;3.10;;;0.90;;
21480;SDS011;10902;48.158;8.634;2023-03-13T11:23:19;4.07;;;1.10;;
21480;SDS011;10902;48.158;8.634;2023-03-13T11:29:02;4.38;;;1.20;;
21480;SDS011;10902;48.158;8.634;2023-03-13T11:31:57;2.92;;;0.70;;
21480;SDS011;10902;48.158;8.634;2023-03-13T11:34:31;2.70;;;0.80;;
21480;SDS011;10902;48.158;8.634;2023-03-13T11:37:14;5.13;;;0.95;;
21480;SDS011;10902;48.158;8.634;2023-03-13T11:39:54;2.65;;;0.70;;
21480;SDS011;10902;48.158;8.634;2023-03-13T11:42:30;4.88;;;0.95;;
21480;SDS011;10902;48.158;8.634;2023-03-13T11:45:31;3.33;;;0.80;;
21480;SDS011;10902;48.158;8.634;2023-03-13T11:48:31;5.65;;;1.10;;
21480;SDS011;10902;48.158;8.634;2023-03-13T11:51:14;4.90;;;1.00;;
21480;SDS011;10902;48.158;8.634;2023-03-13T11:56:55;6.88;;;1.13;;
21480;SDS011;10902;48.158;8.634;2023-03-13T11:59:27;3.35;;;0.88;;
21480;SDS011;10902;48.158;8.634;2023-03-13T12:02:22;5.53;;;0.93;;
21480;SDS011;10902;48.158;8.634;2023-03-13T12:04:55;2.75;;;0.80;;
21480;SDS011;10902;48.158;8.634;2023-03-13T12:07:26;5.72;;;0.88;;
21480;SDS011;10902;48.158;8.634;2023-03-13T12:18:04;2.90;;;0.80;;
21480;SDS011;10902;48.158;8.634;2023-03-13T12:20:54;2.63;;;0.77;;
21480;SDS011;10902;48.158;8.634;2023-03-13T12:26:46;2.50;;;0.82;;
21480;SDS011;10902;48.158;8.634;2023-03-13T12:37:51;3.30;;;0.80;;
21480;SDS011;10902;48.158;8.634;2023-03-13T12:40:24;2.75;;;1.00;;
21480;SDS011;10902;48.158;8.634;2023-03-13T12:43:01;3.20;;;0.80;;
21480;SDS011;10902;48.158;8.634;2023-03-13T12:45:37;2.45;;;0.82;;
21480;SDS011;10902;48.158;8.634;2023-03-13T12:51:09;4.93;;;1.08;;
21480;SDS011;10902;48.158;8.634;2023-03-13T12:53:47;4.38;;;0.80;;
21480;SDS011;10902;48.158;8.634;2023-03-13T12:59:06;5.55;;;0.80;;
21480;SDS011;10902;48.158;8.634;2023-03-13T13:01:36;2.50;;;0.65;;
21480;SDS011;10902;48.158;8.634;2023-03-13T13:04:07;2.00;;;0.60;;
21480;SDS011;10902;48.158;8.634;2023-03-13T13:09:34;4.07;;;0.80;;
21480;SDS011;10902;48.158;8.634;2023-03-13T13:12:02;5.35;;;0.82;;
21480;SDS011;10902;48.158;8.634;2023-03-13T13:19:45;3.90;;;0.77;;
21480;SDS011;10902;48.158;8.634;2023-03-13T13:27:52;3.05;;;0.88;;
21480;SDS011;10902;48.158;8.634;2023-03-13T13:32:45;3.58;;;0.90;;
21480;SDS011;10902;48.158;8.634;2023-03-13T13:35:18;2.67;;;0.90;;
21480;SDS011;10902;48.158;8.634;2023-03-13T13:37:54;2.88;;;0.70;;
21480;SDS011;10902;48.158;8.634;2023-03-13T13:40:41;3.17;;;0.88;;
21480;SDS011;10902;48.158;8.634;2023-03-13T13:43:23;1.92;;;0.50;;
21480;SDS011;10902;48.158;8.634;2023-03-13T13:46:02;2.92;;;0.70;;
21480;SDS011;10902;48.158;8.634;2023-03-13T13:48:37;6.68;;;0.90;;
21480;SDS011;10902;48.158;8.634;2023-03-13T13:56:27;4.65;;;0.82;;
21480;SDS011;10902;48.158;8.634;2023-03-13T14:01:44;3.95;;;0.85;;
21480;SDS011;10902;48.158;8.634;2023-03-13T14:04:27;4.20;;;0.80;;
21480;SDS011;10902;48.158;8.634;2023-03-13T14:07:20;4.03;;;1.05;;
21480;SDS011;10902;48.158;8.634;2023-03-13T14:12:36;4.85;;;0.70;;
21480;SDS011;10902;48.158;8.634;2023-03-13T14:15:22;3.35;;;0.63;;
21480;SDS011;10902;48.158;8.634;2023-03-13T14:17:49;2.63;;;0.65;;
21480;SDS011;10902;48.158;8.634;2023-03-13T14:22:45;3.55;;;1.10;;
21480;SDS011;10902;48.158;8.634;2023-03-13T14:25:12;2.92;;;0.40;;
21480;SDS011;10902;48.158;8.634;2023-03-13T14:27:45;2.55;;;0.60;;
21480;SDS011;10902;48.158;8.634;2023-03-13T14:30:13;2.30;;;0.57;;
21480;SDS011;10902;48.158;8.634;2023-03-13T14:32:41;4.00;;;0.50;;
21480;SDS011;10902;48.158;8.634;2023-03-13T14:35:07;3.20;;;0.68;;
21480;SDS011;10902;48.158;8.634;2023-03-13T14:40:05;2.78;;;0.60;;
21480;SDS011;10902;48.158;8.634;2023-03-13T14:42:52;2.65;;;0.70;;
21480;SDS011;10902;48.158;8.634;2023-03-13T14:45:30;4.53;;;0.70;;
21480;SDS011;10902;48.158;8.634;2023-03-13T14:48:04;3.17;;;0.70;;
21480;SDS011;10902;48.158;8.634;2023-03-13T14:50:34;2.50;;;0.80;;
21480;SDS011;10902;48.158;8.634;2023-03-13T14:53:02;2.53;;;0.52;;
21480;SDS011;10902;48.158;8.634;2023-03-13T14:55:35;3.53;;;0.70;;
21480;SDS011;10902;48.158;8.634;2023-03-13T14:58:25;2.47;;;0.52;;
21480;SDS011;10902;48.158;8.634;2023-03-13T15:00:52;2.00;;;0.50;;
21480;SDS011;10902;48.158;8.634;2023-03-13T15:11:33;2.35;;;0.60;;
21480;SDS011;10902;48.158;8.634;2023-03-13T15:14:02;3.42;;;0.77;;
21480;SDS011;10902;48.158;8.634;2023-03-13T15:16:48;3.85;;;0.68;;
21480;SDS011;10902;48.158;8.634;2023-03-13T15:19:14;4.93;;;0.90;;
21480;SDS011;10902;48.158;8.634;2023-03-13T15:21:39;2.90;;;0.80;;
21480;SDS011;10902;48.158;8.634;2023-03-13T15:24:11;3.40;;;0.73;;
21480;SDS011;10902;48.158;8.634;2023-03-13T15:26:38;3.28;;;0.70;;
21480;SDS011;10902;48.158;8.634;2023-03-13T15:29:04;2.90;;;0.73;;
21480;SDS011;10902;48.158;8.634;2023-03-13T15:31:30;2.50;;;1.00;;
21480;SDS011;10902;48.158;8.634;2023-03-13T15:33:57;3.38;;;1.00;;
21480;SDS011;10902;48.158;8.634;2023-03-13T15:36:24;2.58;;;0.70;;
21480;SDS011;10902;48.158;8.634;2023-03-13T15:38:51;3.63;;;0.60;;
21480;SDS011;10902;48.158;8.634;2023-03-13T15:41:18;5.18;;;0.98;;
21480;SDS011;10902;48.158;8.634;2023-03-13T15:43:44;3.10;;;0.80;;
21480;SDS011;10902;48.158;8.634;2023-03-13T15:46:12;3.92;;;1.00;;
21480;SDS011;10902;48.158;8.634;2023-03-13T15:48:38;3.03;;;0.60;;
21480;SDS011;10902;48.158;8.634;2023-03-13T15:51:08;2.30;;;0.57;;
21480;SDS011;10902;48.158;8.634;2023-03-13T15:53:36;5.10;;;0.65;;
21480;SDS011;10902;48.158;8.634;2023-03-13T15:56:04;2.33;;;0.70;;
21480;SDS011;10902;48.158;8.634;2023-03-13T15:58:44;3.50;;;0.73;;
21480;SDS011;10902;48.158;8.634;2023-03-13T16:01:11;2.42;;;0.70;;
21480;SDS011;10902;48.158;8.634;2023-03-13T16:03:38;3.15;;;0.82;;
21480;SDS011;10902;48.158;8.634;2023-03-13T16:06:37;3.97;;;1.10;;
21480;SDS011;10902;48.158;8.634;2023-03-13T16:08:59;4.50;;;1.17;;
21480;SDS011;10902;48.158;8.634;2023-03-13T16:11:27;5.45;;;1.20;;
21480;SDS011;10902;48.158;8.634;2023-03-13T16:13:53;5.32;;;1.10;;
21480;SDS011;10902;48.158;8.634;2023-03-13T16:16:26;4.00;;;0.98;;
21480;SDS011;10902;48.158;8.634;2023-03-13T16:18:54;3.42;;;0.63;;
21480;SDS011;10902;48.158;8.634;2023-03-13T16:21:28;3.08;;;0.75;;
21480;SDS011;10902;48.158;8.634;2023-03-13T16:23:55;3.08;;;0.80;;
21480;SDS011;10902;48.158;8.634;2023-03-13T16:26:22;5.60;;;1.20;;
21480;SDS011;10902;48.158;8.634;2023-03-13T16:28:50;3.10;;;0.80;;
21480;SDS011;10902;48.158;8.634;2023-03-13T16:31:18;3.80;;;1.23;;
21480;SDS011;10902;48.158;8.634;2023-03-13T16:33:46;3.42;;;0.65;;
21480;SDS011;10902;48.158;8.634;2023-03-13T16:36:16;4.93;;;1.00;;
21480;SDS011;10902;48.158;8.634;2023-03-13T16:38:43;3.13;;;0.73;;